createdAt,value
2018-12-15T00:01:58.827Z,127.33
2018-12-15T00:04:39.371Z,131.60
2018-12-15T00:07:20.724Z,134.13
2018-12-15T00:10:01.283Z,183.47
2018-12-15T00:12:42.608Z,170.23
2018-12-15T00:15:24.188Z,163.47
2018-12-15T00:18:04.864Z,154.17
2018-12-15T00:20:45.655Z,142.57
2018-12-15T00:23:26.812Z,142.80
2018-12-15T00:26:07.343Z,165.50
2018-12-15T00:28:48.355Z,153.17
2018-12-15T00:31:28.959Z,144.43
2018-12-15T00:34:09.781Z,143.10
2018-12-15T00:36:50.671Z,140.53
2018-12-15T00:39:31.637Z,141.63
2018-12-15T00:42:12.804Z,143.37
2018-12-15T00:44:53.395Z,143.60
2018-12-15T00:47:34.712Z,147.07
2018-12-15T00:50:15.999Z,139.80
2018-12-15T00:52:57.263Z,136.73
2018-12-15T00:55:38.243Z,139.37
2018-12-15T00:58:19.510Z,137.97
2018-12-15T01:00:59.998Z,139.60
2018-12-15T01:03:41.523Z,139.90
2018-12-15T01:06:22.206Z,135.53
2018-12-15T01:09:03.468Z,137.07
2018-12-15T01:11:44.774Z,133.50
2018-12-15T01:14:25.920Z,134.17
2018-12-15T01:17:07.538Z,135.87
2018-12-15T01:19:48.481Z,134.60
2018-12-15T01:22:29.118Z,143.40
2018-12-15T01:25:10.392Z,150.17
2018-12-15T01:27:51.425Z,142.53
2018-12-15T01:30:31.910Z,143.33
2018-12-15T01:33:12.884Z,134.43
2018-12-15T01:35:53.527Z,143.33
2018-12-15T01:38:34.561Z,144.90
2018-12-15T01:41:15.587Z,258.20
2018-12-15T01:43:56.480Z,173.60
2018-12-15T01:46:37.528Z,152.13
2018-12-15T01:49:18.413Z,149.03
2018-12-15T01:51:59.460Z,143.00
2018-12-15T01:54:40.118Z,156.77
2018-12-15T01:57:20.958Z,141.27
2018-12-15T02:00:01.966Z,136.50
2018-12-15T02:02:42.524Z,139.43
2018-12-15T02:05:23.608Z,139.07
2018-12-15T02:08:04.593Z,137.17
2018-12-15T02:10:45.336Z,146.30
2018-12-15T02:13:26.128Z,149.00
2018-12-15T02:16:07.085Z,152.93
2018-12-15T02:18:47.761Z,162.93
2018-12-15T02:21:28.267Z,164.23
2018-12-15T02:24:09.388Z,138.03
2018-12-15T02:26:49.940Z,139.27
2018-12-15T02:29:30.259Z,136.97
2018-12-15T02:32:11.293Z,132.17
2018-12-15T02:34:51.966Z,136.00
2018-12-15T02:37:33.560Z,128.37
2018-12-15T02:40:14.079Z,132.17
2018-12-15T02:42:54.877Z,135.03
2018-12-15T02:45:36.648Z,131.10
2018-12-15T02:48:18.875Z,134.50
2018-12-15T02:50:59.963Z,132.70
2018-12-15T02:53:42.109Z,127.80
2018-12-15T02:56:23.393Z,123.33
2018-12-15T02:59:06.416Z,120.70
2018-12-15T03:01:47.654Z,124.13
2018-12-15T03:04:28.909Z,123.17
2018-12-15T03:07:09.928Z,127.00
2018-12-15T03:09:50.768Z,128.30
2018-12-15T03:12:31.570Z,129.93
2018-12-15T03:15:12.708Z,127.63
2018-12-15T03:17:53.949Z,132.87
2018-12-15T03:20:35.224Z,129.33
2018-12-15T03:23:15.942Z,125.80
2018-12-15T03:25:56.306Z,123.60
2018-12-15T03:28:37.444Z,122.20
2018-12-15T03:31:18.094Z,120.63
2018-12-15T03:33:59.373Z,124.43
2018-12-15T03:36:40.017Z,128.30
2018-12-15T03:39:21.063Z,117.80
2018-12-15T03:42:01.921Z,113.03
2018-12-15T03:44:42.559Z,112.30
2018-12-15T03:47:23.548Z,112.53
2018-12-15T03:50:04.178Z,110.73
2018-12-15T03:52:45.231Z,115.67
2018-12-15T04:03:39.887Z,112.40
2018-12-15T04:06:20.577Z,108.87
2018-12-15T04:09:01.454Z,127.30
2018-12-15T04:11:42.491Z,106.63
2018-12-15T04:14:23.781Z,107.60
2018-12-15T04:17:04.992Z,104.17
2018-12-15T04:19:45.733Z,105.50
2018-12-15T04:22:26.597Z,106.07
2018-12-15T04:25:07.866Z,110.10
2018-12-15T04:27:48.552Z,112.70
2018-12-15T04:30:29.133Z,106.67
2018-12-15T04:33:10.189Z,101.13
2018-12-15T04:52:05.434Z,105.60
2018-12-15T04:54:46.459Z,106.20
2018-12-15T04:57:27.703Z,106.10
2018-12-15T05:00:09.013Z,114.03
2018-12-15T05:02:50.244Z,106.37
2018-12-15T05:05:30.648Z,103.80
2018-12-15T05:08:11.648Z,105.77
2018-12-15T05:10:52.800Z,109.93
2018-12-15T05:13:34.182Z,111.83
2018-12-15T05:16:15.145Z,105.07
2018-12-15T05:18:55.736Z,106.13
2018-12-15T05:21:36.607Z,102.03
2018-12-15T05:24:17.955Z,107.93
2018-12-15T05:26:59.225Z,108.20
2018-12-15T05:29:40.505Z,110.13
2018-12-15T05:32:21.774Z,114.87
2018-12-15T05:35:03.057Z,110.77
2018-12-15T05:37:43.997Z,114.33
2018-12-15T05:40:24.767Z,107.60
2018-12-15T05:43:04.673Z,106.50
2018-12-15T05:45:45.684Z,102.73
2018-12-15T05:48:26.882Z,109.23
2018-12-15T05:51:07.840Z,105.43
2018-12-15T05:53:48.582Z,106.93
2018-12-15T05:56:29.223Z,102.13
2018-12-15T05:59:10.227Z,104.53
2018-12-15T06:01:51.077Z,104.50
2018-12-15T06:04:31.699Z,101.53
2018-12-15T06:07:12.993Z,118.87
2018-12-15T06:09:53.710Z,99.60
2018-12-15T06:12:34.582Z,97.07
2018-12-15T06:15:15.153Z,98.83
2018-12-15T06:17:56.628Z,94.67
2018-12-15T06:20:36.958Z,97.93
2018-12-15T06:23:17.765Z,95.90
2018-12-15T06:25:58.229Z,100.57
2018-12-15T06:28:38.552Z,90.10
2018-12-15T06:31:19.114Z,96.13
2018-12-15T06:33:59.514Z,96.53
2018-12-15T06:36:39.664Z,92.00
2018-12-15T06:39:19.668Z,83.37
2018-12-15T06:42:00.028Z,85.13
2018-12-15T06:44:40.574Z,85.20
2018-12-15T06:47:20.993Z,80.00
2018-12-15T06:50:01.879Z,81.77
2018-12-15T06:52:42.326Z,79.37
2018-12-15T06:55:23.103Z,77.53
2018-12-15T06:58:03.980Z,77.17
2018-12-15T07:00:44.111Z,77.90
2018-12-15T07:03:24.803Z,77.10
2018-12-15T07:06:05.043Z,67.87
2018-12-15T07:08:45.815Z,67.23
2018-12-15T07:11:26.479Z,64.77
2018-12-15T07:14:06.630Z,64.77
2018-12-15T07:16:47.099Z,62.43
2018-12-15T07:19:28.104Z,66.90
2018-12-15T07:22:08.731Z,62.83
2018-12-15T07:24:49.391Z,63.27
2018-12-15T07:27:29.624Z,62.00
2018-12-15T07:30:09.915Z,65.63
2018-12-15T07:32:50.487Z,69.90
2018-12-15T07:35:30.734Z,67.40
2018-12-15T07:38:11.083Z,66.13
2018-12-15T07:40:51.428Z,65.97
2018-12-15T07:43:31.912Z,75.97
2018-12-15T07:46:12.384Z,65.80
2018-12-15T07:48:52.953Z,69.53
2018-12-15T07:51:34.034Z,67.93
2018-12-15T07:54:14.231Z,61.13
2018-12-15T07:56:54.549Z,58.27
2018-12-15T07:59:34.820Z,57.40
2018-12-15T08:02:15.234Z,55.10
2018-12-15T08:04:55.467Z,56.20
2018-12-15T08:07:36.937Z,53.30
2018-12-15T08:10:17.667Z,64.40
2018-12-15T08:12:58.011Z,54.30
2018-12-15T08:15:38.372Z,54.00
2018-12-15T08:18:19.227Z,51.47
2018-12-15T08:20:59.391Z,53.20
2018-12-15T08:23:39.878Z,53.70
2018-12-15T08:29:05.141Z,53.17
2018-12-15T08:31:45.754Z,49.37
2018-12-15T08:34:26.106Z,48.63
2018-12-15T08:37:06.535Z,46.03
2018-12-15T08:39:47.670Z,53.60
2018-12-15T08:42:28.332Z,46.20
2018-12-15T08:45:09.200Z,46.53
2018-12-15T08:47:49.540Z,46.13
2018-12-15T08:50:29.801Z,46.47
2018-12-15T08:53:10.775Z,45.97
2018-12-15T08:55:51.710Z,46.03
2018-12-15T08:58:32.014Z,46.40
2018-12-15T09:01:12.468Z,45.87
2018-12-15T09:03:53.040Z,47.13
2018-12-15T09:06:33.398Z,49.97
2018-12-15T09:09:14.167Z,50.00
2018-12-15T09:11:54.544Z,49.73
2018-12-15T09:14:34.677Z,49.47
2018-12-15T09:17:15.252Z,48.10
2018-12-15T09:19:56.201Z,47.63
2018-12-15T09:22:37.216Z,46.00
2018-12-15T09:25:17.421Z,43.50
2018-12-15T09:27:57.699Z,45.53
2018-12-15T09:30:37.856Z,43.37
2018-12-15T09:33:18.081Z,42.17
2018-12-15T09:35:58.494Z,40.77
2018-12-15T09:38:39.215Z,39.50
2018-12-15T09:41:19.701Z,39.70
2018-12-15T09:44:00.072Z,40.63
2018-12-15T09:46:40.992Z,43.30
2018-12-15T09:49:21.718Z,48.97
2018-12-15T09:52:02.074Z,46.50
2018-12-15T09:54:41.991Z,44.90
2018-12-15T09:57:22.616Z,38.70
2018-12-15T10:00:02.950Z,39.13
2018-12-15T10:02:43.024Z,37.70
2018-12-15T10:05:24.707Z,36.73
2018-12-15T10:08:04.736Z,37.80
2018-12-15T10:10:45.716Z,36.17
2018-12-15T10:16:12.225Z,38.00
2018-12-15T10:18:53.625Z,38.33
2018-12-15T10:21:33.917Z,43.40
2018-12-15T10:24:14.493Z,40.53
2018-12-15T10:26:54.381Z,39.33
2018-12-15T10:29:34.659Z,40.10
2018-12-15T10:32:14.828Z,39.87
2018-12-15T10:34:54.658Z,39.70
2018-12-15T10:37:34.695Z,38.53
2018-12-15T10:40:15.401Z,37.27
2018-12-15T10:42:55.760Z,39.83
2018-12-15T10:45:36.089Z,43.13
2018-12-15T10:48:16.654Z,51.10
2018-12-15T10:50:57.665Z,54.73
2018-12-15T10:53:37.830Z,44.00
2018-12-15T10:56:17.973Z,41.93
2018-12-15T10:58:57.941Z,42.97
2018-12-15T11:01:39.303Z,45.00
2018-12-15T11:04:19.413Z,45.47
2018-12-15T11:06:59.470Z,43.07
2018-12-15T11:09:40.189Z,47.73
2018-12-15T11:12:20.146Z,45.53
2018-12-15T11:15:00.470Z,45.53
2018-12-15T11:17:40.645Z,42.47
2018-12-15T11:20:21.016Z,46.53
2018-12-15T11:23:01.188Z,46.00
2018-12-15T11:25:42.155Z,48.47
2018-12-15T11:28:22.787Z,46.40
2018-12-15T11:31:02.627Z,46.43
2018-12-15T11:33:42.826Z,45.50
2018-12-15T11:36:23.239Z,47.33
2018-12-15T11:39:03.672Z,65.57
2018-12-15T11:41:44.621Z,65.97
2018-12-15T11:44:24.592Z,62.90
2018-12-15T11:47:04.398Z,66.10
2018-12-15T11:49:45.085Z,66.83
2018-12-15T11:52:27.715Z,58.60
2018-12-15T11:57:58.630Z,52.63
2018-12-15T12:00:39.139Z,52.23
2018-12-15T12:03:19.128Z,54.93
2018-12-15T12:05:59.588Z,62.27
2018-12-15T12:08:40.759Z,58.17
2018-12-15T12:11:21.949Z,67.43
2018-12-15T12:14:01.752Z,55.23
2018-12-15T12:16:42.012Z,304.53
2018-12-15T12:19:22.597Z,212.77
2018-12-15T12:22:02.759Z,74.63
2018-12-15T12:24:42.831Z,51.80
2018-12-15T12:27:23.713Z,56.97
2018-12-15T12:30:03.990Z,63.17
2018-12-15T12:32:44.190Z,111.30
2018-12-15T12:35:25.302Z,79.63
2018-12-15T12:38:05.512Z,65.80
2018-12-15T12:40:46.124Z,74.53
2018-12-15T12:43:26.500Z,80.73
2018-12-15T12:46:06.474Z,75.97
2018-12-15T12:48:46.751Z,69.60
2018-12-15T12:51:26.938Z,71.60
2018-12-15T12:54:07.494Z,76.60
2018-12-15T12:56:47.792Z,83.33
2018-12-15T12:59:28.984Z,125.07
2018-12-15T13:02:10.143Z,112.70
2018-12-15T13:04:50.778Z,100.53
2018-12-15T13:07:31.028Z,109.80
2018-12-15T13:10:11.561Z,199.93
2018-12-15T13:12:52.147Z,158.57
2018-12-15T13:15:32.298Z,124.73
2018-12-15T13:18:12.877Z,133.50
2018-12-15T13:20:52.901Z,131.07
2018-12-15T13:23:33.412Z,119.83
2018-12-15T13:26:14.031Z,120.60
2018-12-15T13:28:54.538Z,119.70
2018-12-15T13:31:34.544Z,118.17
2018-12-15T13:34:14.669Z,114.37
2018-12-15T13:36:54.979Z,122.50
2018-12-15T13:39:35.366Z,120.50
2018-12-15T13:42:15.816Z,119.87
2018-12-15T13:44:57.303Z,111.97
2018-12-15T13:47:43.880Z,106.10
2018-12-15T13:50:24.577Z,91.50
2018-12-15T13:53:05.974Z,106.30
2018-12-15T13:55:47.238Z,99.20
2018-12-15T13:58:28.508Z,104.70
2018-12-15T14:01:10.430Z,108.10
2018-12-15T14:12:20.067Z,98.43
2018-12-15T14:15:15.819Z,95.03
2018-12-15T14:20:44.674Z,98.57
2018-12-15T14:23:29.470Z,94.47
2018-12-15T14:26:12.471Z,118.23
2018-12-15T14:31:45.961Z,106.70
2018-12-15T14:34:26.708Z,114.80
2018-12-15T14:37:07.517Z,121.00
2018-12-15T14:39:47.904Z,186.50
2018-12-15T14:42:28.352Z,153.60
2018-12-15T14:45:08.627Z,146.57
2018-12-15T14:47:49.146Z,130.03
2018-12-15T14:50:30.396Z,121.57
2018-12-15T14:53:11.549Z,110.07
2018-12-15T14:55:52.426Z,107.33
2018-12-15T14:58:32.267Z,117.53
2018-12-15T15:01:13.205Z,121.67
2018-12-15T15:03:52.998Z,115.20
2018-12-15T15:06:34.016Z,107.83
2018-12-15T15:09:13.987Z,108.67
2018-12-15T15:11:54.079Z,108.93
2018-12-15T15:14:35.236Z,112.53
2018-12-15T15:17:15.752Z,108.07
2018-12-15T15:19:56.901Z,108.50
2018-12-15T15:22:37.781Z,124.37
2018-12-15T15:25:18.764Z,135.23
2018-12-15T15:27:59.854Z,150.53
2018-12-15T15:30:41.016Z,118.83
2018-12-15T15:33:21.680Z,120.43
2018-12-15T15:36:02.660Z,119.50
2018-12-15T15:38:43.326Z,127.43
2018-12-15T15:41:24.494Z,127.50
2018-12-15T15:44:05.788Z,127.07
2018-12-15T15:46:46.791Z,122.70
2018-12-15T15:49:27.839Z,136.17
2018-12-15T15:52:09.138Z,137.80
2018-12-15T15:54:50.284Z,136.73
2018-12-15T15:57:30.781Z,128.17
2018-12-15T16:00:11.937Z,128.70
2018-12-15T16:05:36.034Z,135.23
2018-12-15T16:08:16.997Z,138.20
2018-12-15T16:10:57.982Z,142.47
2018-12-15T16:13:39.189Z,136.50
2018-12-15T16:16:20.472Z,135.07
2018-12-15T16:19:01.215Z,130.10
2018-12-15T16:21:42.691Z,170.43
2018-12-15T16:24:23.156Z,140.10
2018-12-15T16:27:07.226Z,127.40
2018-12-15T16:29:48.578Z,122.67
2018-12-15T16:32:29.591Z,128.30
2018-12-15T16:35:10.837Z,127.00
2018-12-15T16:37:51.406Z,124.93
2018-12-15T16:40:32.324Z,121.23
2018-12-15T16:43:13.597Z,123.30
2018-12-15T16:45:54.633Z,125.97
2018-12-15T16:48:35.867Z,122.33
2018-12-15T16:51:16.890Z,124.97
2018-12-15T16:53:58.116Z,122.47
2018-12-15T16:56:39.693Z,127.67
2018-12-15T16:59:20.335Z,132.10
2018-12-15T17:02:01.163Z,134.10
2018-12-15T17:04:42.352Z,138.40
2018-12-15T17:07:23.137Z,135.30
2018-12-15T17:10:03.691Z,137.60
2018-12-15T17:12:44.876Z,141.63
2018-12-15T17:15:26.393Z,137.90
2018-12-15T17:18:07.362Z,136.40
2018-12-15T17:20:48.730Z,161.47
2018-12-15T17:23:29.699Z,129.83
2018-12-15T17:26:10.555Z,126.30
2018-12-15T17:28:51.537Z,127.07
2018-12-15T17:31:32.203Z,129.00
2018-12-15T17:34:13.442Z,130.33
2018-12-15T17:36:54.723Z,128.60
2018-12-15T17:39:35.324Z,129.70
2018-12-15T17:42:16.674Z,129.43
2018-12-15T17:44:58.045Z,127.83
2018-12-15T17:47:38.952Z,133.87
2018-12-15T17:50:19.941Z,140.43
2018-12-15T17:53:00.825Z,139.30
2018-12-15T17:55:41.891Z,135.07
2018-12-15T17:58:23.466Z,138.10
2018-12-15T18:01:04.153Z,133.67
2018-12-15T18:03:45.224Z,136.80
2018-12-15T18:06:26.289Z,134.77
2018-12-15T18:09:07.265Z,132.33
2018-12-15T18:22:57.343Z,135.93
2018-12-15T18:25:38.580Z,130.43
2018-12-15T18:28:19.252Z,133.83
2018-12-15T18:31:00.715Z,129.73
2018-12-15T18:33:42.092Z,134.87
2018-12-15T18:36:22.782Z,132.17
2018-12-15T18:39:03.448Z,130.87
2018-12-15T18:41:44.335Z,129.37
2018-12-15T18:44:25.278Z,128.97
2018-12-15T18:47:06.563Z,131.30
2018-12-15T18:49:47.353Z,130.93
2018-12-15T18:52:28.802Z,129.13
2018-12-15T18:55:09.748Z,125.23
2018-12-15T18:57:50.784Z,126.27
2018-12-15T19:00:31.703Z,127.40
2018-12-15T19:03:12.991Z,127.83
2018-12-15T19:05:53.394Z,130.90
2018-12-15T19:08:34.368Z,130.27
2018-12-15T19:11:15.656Z,129.23
2018-12-15T19:13:56.496Z,124.97
2018-12-15T19:16:37.496Z,132.60
2018-12-15T19:19:18.410Z,124.90
2018-12-15T19:21:59.990Z,128.27
2018-12-15T19:24:41.274Z,122.47
2018-12-15T19:27:22.583Z,123.80
2018-12-15T19:30:03.291Z,120.87
2018-12-15T19:32:44.181Z,115.23
2018-12-15T19:35:25.129Z,119.53
2018-12-15T19:38:05.761Z,115.20
2018-12-15T19:40:46.711Z,104.23
2018-12-15T19:43:27.990Z,101.83
2018-12-15T19:46:09.131Z,101.00
2018-12-15T19:48:50.231Z,99.00
2018-12-15T19:51:31.271Z,94.13
2018-12-15T19:54:12.550Z,94.37
2018-12-15T19:56:53.445Z,91.77
2018-12-15T19:59:34.202Z,89.33
2018-12-15T20:02:15.355Z,87.47
2018-12-15T20:04:56.320Z,81.83
2018-12-15T20:07:39.952Z,79.77
2018-12-15T20:10:20.816Z,73.60
2018-12-15T20:13:01.938Z,77.73
2018-12-15T20:15:43.192Z,80.30
2018-12-15T20:18:24.636Z,76.67
2018-12-15T20:21:05.940Z,76.70
2018-12-15T20:23:47.198Z,75.93
2018-12-15T20:26:27.712Z,76.43
2018-12-15T20:29:08.797Z,77.63
2018-12-15T20:31:49.773Z,75.03
2018-12-15T20:34:30.703Z,74.60
2018-12-15T20:37:11.688Z,71.23
2018-12-15T20:39:52.707Z,71.27
2018-12-15T20:42:34.259Z,73.90
2018-12-15T20:45:15.191Z,68.80
2018-12-15T20:47:56.540Z,70.03
2018-12-15T20:50:37.124Z,65.60
2018-12-15T20:53:17.868Z,64.60
2018-12-15T20:55:58.857Z,64.93
2018-12-15T20:58:40.002Z,61.03
2018-12-15T21:01:20.995Z,59.07
2018-12-15T21:04:02.276Z,57.57
2018-12-15T21:06:43.535Z,56.00
2018-12-15T21:09:24.475Z,53.70
2018-12-15T21:12:05.762Z,51.47
2018-12-15T21:14:46.405Z,52.37
2018-12-15T21:17:27.367Z,50.50
2018-12-15T21:20:08.713Z,50.57
2018-12-15T21:22:50.259Z,50.43
2018-12-15T21:25:30.997Z,49.10
2018-12-15T21:28:11.862Z,48.13
2018-12-15T21:30:52.832Z,50.37
2018-12-15T21:33:33.773Z,49.50
2018-12-15T21:36:15.079Z,50.23
2018-12-15T21:38:55.743Z,47.67
2018-12-15T21:41:36.638Z,46.70
2018-12-15T21:44:17.707Z,48.57
2018-12-15T21:46:58.601Z,47.40
2018-12-15T21:49:39.680Z,46.97
2018-12-15T21:52:20.854Z,49.23
2018-12-15T21:55:01.790Z,48.57
2018-12-15T21:57:43.079Z,47.97
2018-12-15T22:00:23.841Z,47.37
2018-12-15T22:03:04.734Z,49.00
2018-12-15T22:05:45.606Z,49.90
2018-12-15T22:08:26.562Z,50.83
2018-12-15T22:11:07.237Z,48.07
2018-12-15T22:13:47.655Z,53.37
2018-12-15T22:16:28.789Z,50.57
2018-12-15T22:19:09.843Z,51.23
2018-12-15T22:21:50.725Z,52.07
2018-12-15T22:24:31.678Z,52.63
2018-12-15T22:27:12.672Z,51.87
2018-12-15T22:29:53.641Z,51.10
2018-12-15T22:32:34.558Z,53.37
2018-12-15T22:35:15.866Z,53.97
2018-12-15T22:37:56.813Z,55.20
2018-12-15T22:40:37.757Z,52.73
2018-12-15T22:43:18.415Z,53.13
2018-12-15T22:45:59.693Z,53.13
2018-12-15T22:48:40.808Z,52.03
2018-12-15T22:51:22.065Z,52.07
2018-12-15T22:54:03.525Z,52.87
2018-12-15T22:56:44.471Z,55.23
2018-12-15T22:59:25.378Z,54.93
2018-12-15T23:02:05.893Z,57.30
2018-12-15T23:04:47.112Z,56.97
2018-12-15T23:07:27.997Z,55.97
2018-12-15T23:10:08.750Z,56.27
2018-12-15T23:12:49.283Z,56.67
2018-12-15T23:15:29.992Z,52.43
2018-12-15T23:18:10.955Z,55.37
2018-12-15T23:20:51.525Z,56.07
2018-12-15T23:23:32.640Z,59.77
2018-12-15T23:26:14.221Z,62.70
2018-12-15T23:28:55.029Z,59.60
2018-12-15T23:31:36.023Z,59.17
2018-12-15T23:34:16.491Z,58.90
2018-12-15T23:36:57.392Z,58.80
2018-12-15T23:39:38.058Z,57.50
2018-12-15T23:42:18.690Z,59.07
2018-12-15T23:44:59.487Z,57.93
2018-12-15T23:47:40.144Z,59.73
2018-12-15T23:50:21.202Z,57.00
2018-12-15T23:53:01.460Z,60.87
2018-12-15T23:55:41.609Z,58.23
2018-12-15T23:58:22.690Z,58.97
